Time;durP1;ratioP1;P1;durP2;ratioP2;P2;SDS_P1;SDS_P2;PMS_P1;PMS_P2;Temp;Humidity;BMP_temperature;BMP_pressure;BME280_temperature;BME280_humidity;BME280_pressure;Samples;Min_cycle;Max_cycle;Signal;HPM_P1;HPM_P2
2023/03/01 02:36:33;;;;;;;;;;;-2.20;99.90;;;;;;5131810;27;20796;-83
2023/03/01 02:39:05;;;;;;;14.27;5.32;;;-0.60;99.90;;;;;;5128599;28;19951;-83
2023/03/01 02:41:35;;;;;;;10.98;4.45;;;-3.00;99.90;;;;;;5130898;27;20109;-83
2023/03/01 02:44:02;;;;;;;10.05;4.45;;;-1.00;99.90;;;;;;5130024;28;20116;-84
2023/03/01 02:46:29;;;;;;;12.18;5.05;;;-2.50;99.90;;;;;;5131154;27;20047;-84
2023/03/01 02:48:57;;;;;;;12.32;5.35;;;-1.50;99.90;;;;;;5130976;27;20051;-84
2023/03/01 02:51:25;;;;;;;10.63;4.68;;;-2.00;99.90;;;;;;5129163;28;20086;-84
2023/03/01 02:54:16;;;;;;;7.93;3.88;;;-2.40;99.90;;;;;;5130810;27;20044;-84
2023/03/01 02:56:43;;;;;;;9.45;3.97;;;-2.30;99.90;;;;;;5130121;28;20145;-84
2023/03/01 02:59:10;;;;;;;10.60;4.55;;;-2.30;99.90;;;;;;5129595;28;20100;-84
2023/03/01 03:01:38;;;;;;;10.30;4.38;;;-1.60;99.90;;;;;;5129154;28;20396;-84
2023/03/01 03:04:11;;;;;;;9.27;4.15;;;-2.70;99.90;;;;;;5129290;28;20071;-84
2023/03/01 03:06:37;;;;;;;9.13;4.25;;;-0.80;99.90;;;;;;5129351;28;20047;-84
2023/03/01 03:09:04;;;;;;;8.73;4.65;;;-2.60;99.90;;;;;;5130644;27;20044;-84
2023/03/01 03:11:32;;;;;;;9.63;4.78;;;-1.50;99.90;;;;;;5129166;28;20044;-83
2023/03/01 03:13:57;;;;;;;10.25;4.38;;;-2.60;99.90;;;;;;5128432;28;20491;-84
2023/03/01 03:16:24;;;;;;;7.65;4.32;;;-2.80;99.90;;;;;;5110080;28;20043;-84
2023/03/01 03:18:50;;;;;;;7.13;3.33;;;-2.40;99.90;;;;;;5108956;28;20043;-83
2023/03/01 03:21:16;;;;;;;4.70;2.25;;;-2.60;99.90;;;;;;5121876;28;20071;-83
2023/03/01 03:23:43;;;;;;;5.78;2.13;;;-0.40;99.90;;;;;;5130274;27;20039;-83
2023/03/01 03:26:09;;;;;;;4.35;2.53;;;-2.50;99.90;;;;;;5130478;27;20046;-83
2023/03/01 03:28:35;;;;;;;6.22;2.65;;;-2.00;99.90;;;;;;5130275;27;20043;-83
2023/03/01 03:31:04;;;;;;;5.03;3.03;;;-2.80;99.90;;;;;;5128965;28;20144;-83
2023/03/01 03:33:30;;;;;;;4.93;2.90;;;-3.00;99.90;;;;;;5130294;27;20044;-83
2023/03/01 03:35:56;;;;;;;7.13;3.78;;;-2.90;99.90;;;;;;5129581;27;20065;-84
2023/03/01 03:38:22;;;;;;;6.15;3.22;;;-2.80;99.90;;;;;;5128612;28;20039;-84
2023/03/01 03:40:50;;;;;;;5.75;2.88;;;-2.80;99.90;;;;;;5130745;27;20093;-83
2023/03/01 03:43:22;;;;;;;6.25;3.15;;;-3.60;99.90;;;;;;5111611;28;20134;-84
2023/03/01 03:45:49;;;;;;;6.10;3.72;;;-2.90;99.90;;;;;;5126998;27;20036;-84
2023/03/01 03:48:16;;;;;;;7.47;3.58;;;-2.90;99.90;;;;;;5116580;28;20056;-84
2023/03/01 03:50:46;;;;;;;7.03;3.53;;;-2.90;99.90;;;;;;5115823;28;20035;-84
2023/03/01 03:53:12;;;;;;;4.85;2.70;;;-3.50;99.90;;;;;;5116526;28;20114;-84
2023/03/01 03:55:39;;;;;;;7.45;3.67;;;-1.70;99.90;;;;;;5116340;28;20058;-84
2023/03/01 03:58:08;;;;;;;10.40;5.45;;;-2.40;99.90;;;;;;5115322;28;20524;-84
2023/03/01 04:00:40;;;;;;;9.73;4.82;;;-2.80;99.90;;;;;;5115351;28;20079;-84
2023/03/01 04:03:09;;;;;;;8.45;5.18;;;-3.00;99.90;;;;;;5116044;27;20039;-84
2023/03/01 04:05:37;;;;;;;7.53;4.53;;;-1.50;99.90;;;;;;5115954;28;20039;-83
2023/03/01 04:08:09;;;;;;;8.45;4.60;;;-3.90;99.90;;;;;;5116778;28;20127;-84
2023/03/01 04:10:38;;;;;;;8.07;4.70;;;-2.80;99.90;;;;;;5116249;28;20400;-84
2023/03/01 04:13:05;;;;;;;6.15;4.28;;;-1.70;99.90;;;;;;5115150;28;20100;-84
2023/03/01 04:15:32;;;;;;;6.10;3.80;;;-2.80;99.90;;;;;;5115740;28;20035;-84
2023/03/01 04:17:59;;;;;;;6.05;3.78;;;-2.70;99.90;;;;;;5114849;28;20124;-84
2023/03/01 04:20:28;;;;;;;6.28;2.97;;;-2.40;99.90;;;;;;5116151;28;20062;-84
2023/03/01 04:23:15;;;;;;;5.22;2.70;;;-2.20;99.90;;;;;;5116000;28;20051;-85
2023/03/01 04:25:56;;;;;;;5.03;2.78;;;-2.30;99.90;;;;;;5114300;28;20039;-84
2023/03/01 04:28:34;;;;;;;3.90;2.35;;;-1.20;99.90;;;;;;5115834;27;20059;-84
2023/03/01 04:31:13;;;;;;;4.20;2.30;;;-2.30;99.90;;;;;;5114384;28;20050;-84
2023/03/01 04:33:46;;;;;;;4.80;2.33;;;-4.40;99.90;;;;;;5095166;28;20071;-83
2023/03/01 04:36:14;;;;;;;3.80;2.15;;;-2.90;99.90;;;;;;5106769;28;20181;-83
2023/03/01 04:38:40;;;;;;;2.83;2.00;;;-3.00;99.90;;;;;;5115694;28;20059;-83
2023/03/01 04:41:13;;;;;;;3.08;2.38;;;-3.00;99.90;;;;;;5113760;28;20047;-84
2023/03/01 04:43:39;;;;;;;6.18;3.08;;;-2.20;99.90;;;;;;5115001;28;20395;-84
2023/03/01 04:46:08;;;;;;;5.57;2.78;;;-2.90;99.90;;;;;;5113518;28;20035;-82
2023/03/01 04:48:39;;;;;;;4.60;2.30;;;-2.90;99.90;;;;;;5114301;28;20143;-84
2023/03/01 04:51:05;;;;;;;3.70;2.20;;;-3.00;99.90;;;;;;5115244;28;20084;-84
2023/03/01 04:53:32;;;;;;;4.35;1.98;;;-2.30;99.90;;;;;;5113911;28;20073;-84
2023/03/01 04:55:59;;;;;;;3.80;2.05;;;-1.50;99.90;;;;;;5114842;28;20466;-83
2023/03/01 04:58:26;;;;;;;4.22;2.55;;;-2.60;99.90;;;;;;5113868;28;20096;-84
2023/03/01 05:00:53;;;;;;;3.33;1.90;;;-3.00;99.90;;;;;;5113558;28;20036;-84
2023/03/01 05:03:19;;;;;;;4.47;2.47;;;-3.30;99.90;;;;;;5115009;28;20039;-84
2023/03/01 05:05:48;;;;;;;3.15;2.55;;;-2.40;99.90;;;;;;5113630;28;20052;-84
2023/03/01 05:08:17;;;;;;;4.32;2.47;;;-3.90;99.90;;;;;;5114468;28;20055;-84
2023/03/01 05:10:51;;;;;;;3.58;2.35;;;-3.10;99.90;;;;;;5114652;28;20043;-84
2023/03/01 05:13:20;;;;;;;4.70;2.42;;;-3.40;99.90;;;;;;5113264;28;20066;-84
2023/03/01 05:15:58;;;;;;;4.28;2.75;;;-2.40;99.90;;;;;;5114696;28;20131;-83
2023/03/01 05:18:28;;;;;;;2.63;2.08;;;-3.50;99.90;;;;;;5114195;28;20531;-84
2023/03/01 05:21:07;;;;;;;3.80;1.92;;;-2.20;99.90;;;;;;5076019;28;20040;-84
2023/03/01 05:23:33;;;;;;;3.22;1.75;;;-3.40;99.90;;;;;;5093979;28;20036;-83
2023/03/01 05:26:01;;;;;;;3.33;2.13;;;-3.50;99.90;;;;;;5093204;28;20400;-84
2023/03/01 05:28:28;;;;;;;3.78;2.13;;;-3.50;99.90;;;;;;5101281;28;20456;-83
2023/03/01 05:30:57;;;;;;;2.95;1.50;;;-1.90;99.90;;;;;;5112906;28;20049;-84
2023/03/01 05:33:24;;;;;;;3.35;2.00;;;-3.60;99.90;;;;;;5113837;28;20047;-83
2023/03/01 05:35:52;;;;;;;4.80;2.45;;;-3.60;99.90;;;;;;5113508;28;20055;-83
2023/03/01 05:38:18;;;;;;;6.05;2.85;;;-3.40;99.90;;;;;;5112616;28;20055;-84
2023/03/01 05:40:46;;;;;;;4.22;2.50;;;-3.70;99.90;;;;;;5113682;28;20043;-84
2023/03/01 05:43:14;;;;;;;4.43;2.50;;;-3.90;99.90;;;;;;5112456;28;20044;-84
2023/03/01 05:45:41;;;;;;;5.88;2.88;;;-3.70;99.90;;;;;;5113852;28;20487;-83
2023/03/01 05:48:10;;;;;;;6.18;2.92;;;-3.20;99.90;;;;;;5113649;28;20501;-83
2023/03/01 05:50:42;;;;;;;5.80;2.50;;;-3.80;99.90;;;;;;5112856;28;20123;-84
2023/03/01 05:53:16;;;;;;;5.65;2.75;;;-3.10;99.90;;;;;;5075490;28;20044;-83
2023/03/01 05:55:43;;;;;;;4.75;2.60;;;-4.30;99.90;;;;;;5093464;28;20052;-84
2023/03/01 05:58:15;;;;;;;6.00;2.42;;;-3.20;99.90;;;;;;5093348;28;20083;-84
2023/03/01 06:00:42;;;;;;;4.28;2.05;;;-3.70;99.90;;;;;;5098513;28;20138;-84
2023/03/01 06:03:10;;;;;;;5.47;2.53;;;-2.70;99.90;;;;;;5113750;28;20081;-83
2023/03/01 06:05:36;;;;;;;3.92;2.00;;;-2.50;99.90;;;;;;5113077;28;20143;-83
2023/03/01 06:08:02;;;;;;;5.15;2.03;;;-3.70;99.90;;;;;;5113923;28;20111;-83
2023/03/01 06:10:31;;;;;;;4.70;1.85;;;-3.80;99.90;;;;;;5113737;28;20047;-83
2023/03/01 06:12:57;;;;;;;4.45;2.15;;;-3.80;99.90;;;;;;5113049;28;20067;-83
2023/03/01 06:15:26;;;;;;;4.47;2.22;;;-3.90;99.90;;;;;;5112704;28;20081;-83
2023/03/01 06:17:56;;;;;;;4.75;2.15;;;-3.00;99.90;;;;;;5113313;28;20032;-83
2023/03/01 06:20:24;;;;;;;3.65;2.22;;;-3.90;99.90;;;;;;5113652;28;20044;-84
2023/03/01 06:22:50;;;;;;;5.43;2.92;;;-3.10;99.90;;;;;;5111411;28;20115;-84
2023/03/01 06:25:22;;;;;;;4.78;2.08;;;-4.00;99.90;;;;;;5113063;28;20471;-83
2023/03/01 06:27:48;;;;;;;5.55;2.38;;;-3.80;99.90;;;;;;5112062;28;20051;-83
2023/03/01 06:30:16;;;;;;;5.22;2.45;;;-2.40;99.90;;;;;;5113264;28;20044;-83
2023/03/01 06:32:44;;;;;;;4.47;2.53;;;-3.80;99.90;;;;;;5112287;28;20044;-83
2023/03/01 06:35:12;;;;;;;4.68;2.40;;;-2.90;99.90;;;;;;5111498;28;20052;-83
2023/03/01 06:37:39;;;;;;;6.20;2.90;;;-1.90;99.90;;;;;;5113200;28;20079;-83
2023/03/01 06:40:11;;;;;;;5.85;2.80;;;-3.30;99.90;;;;;;5111342;28;20046;-83
2023/03/01 06:42:38;;;;;;;4.50;2.30;;;-3.90;99.90;;;;;;5111792;28;20096;-83
2023/03/01 06:45:05;;;;;;;6.00;3.08;;;-3.90;99.90;;;;;;5112863;28;20050;-83
2023/03/01 06:47:32;;;;;;;4.90;2.63;;;-3.80;99.90;;;;;;5111379;28;20039;-83
2023/03/01 06:50:02;;;;;;;4.97;2.90;;;-3.90;99.90;;;;;;5113090;28;20090;-83
2023/03/01 06:52:28;;;;;;;4.15;2.40;;;-3.80;99.90;;;;;;5113214;28;20036;-83
2023/03/01 06:54:54;;;;;;;6.75;2.80;;;-2.40;99.90;;;;;;5111212;28;20101;-84
2023/03/01 06:57:19;;;;;;;6.82;2.70;;;-3.20;99.90;;;;;;5112962;28;20078;-88
2023/03/01 06:59:47;;;;;;;6.22;3.03;;;-3.60;99.90;;;;;;5111517;28;20454;-86
2023/03/01 07:02:13;;;;;;;5.53;2.53;;;-3.60;99.90;;;;;;5111001;28;20047;-86
2023/03/01 07:04:39;;;;;;;6.20;3.35;;;-4.30;99.90;;;;;;5112486;28;20053;-84
2023/03/01 07:07:05;;;;;;;8.60;3.97;;;-2.50;99.90;;;;;;5111425;28;20110;-84
2023/03/01 07:09:31;;;;;;;9.93;4.80;;;-3.10;99.90;;;;;;5113387;28;20074;-83
2023/03/01 07:11:57;;;;;;;8.35;4.15;;;-2.00;99.90;;;;;;5112864;28;20488;-85
2023/03/01 07:14:25;;;;;;;8.05;4.07;;;-3.90;99.90;;;;;;5110882;28;20050;-84
2023/03/01 07:16:55;;;;;;;9.88;4.32;;;-3.60;99.90;;;;;;5112562;28;20051;-85
2023/03/01 07:19:21;;;;;;;9.10;4.18;;;-2.80;99.90;;;;;;5111708;28;20032;-85
2023/03/01 07:21:47;;;;;;;8.98;4.50;;;-2.30;99.90;;;;;;5112701;28;20120;-85
2023/03/01 07:24:13;;;;;;;8.57;4.40;;;-3.20;99.90;;;;;;5115227;28;20044;-85
2023/03/01 07:26:38;;;;;;;6.70;3.53;;;-3.60;99.90;;;;;;5114859;28;20548;-85
2023/03/01 07:29:06;;;;;;;8.73;4.10;;;-2.00;99.90;;;;;;5116209;28;20032;-85
2023/03/01 07:31:32;;;;;;;7.57;3.75;;;-3.60;99.90;;;;;;5115234;28;20051;-85
2023/03/01 07:33:58;;;;;;;6.25;3.00;;;-3.60;99.90;;;;;;5114967;28;20040;-82
2023/03/01 07:36:25;;;;;;;4.82;2.42;;;-3.30;99.90;;;;;;5115659;28;20062;-86
2023/03/01 07:38:51;;;;;;;6.50;2.85;;;-3.40;99.90;;;;;;5116311;28;20073;-85
2023/03/01 07:41:17;;;;;;;6.32;3.58;;;-3.40;99.90;;;;;;5098330;28;20461;-87
2023/03/01 07:43:43;;;;;;;7.55;3.60;;;-2.20;99.90;;;;;;5114580;28;20049;-86
2023/03/01 07:46:09;;;;;;;5.68;2.92;;;-3.60;99.90;;;;;;5115916;27;20452;-86
2023/03/01 07:48:36;;;;;;;5.68;3.00;;;-3.70;99.90;;;;;;5114765;28;20050;-85
2023/03/01 07:51:04;;;;;;;6.45;2.80;;;-2.50;99.90;;;;;;5115967;28;20122;-86
2023/03/01 07:53:31;;;;;;;6.28;2.83;;;-3.00;99.90;;;;;;5115161;28;20040;-85
2023/03/01 07:56:11;;;;;;;5.70;2.70;;;-2.90;99.90;;;;;;5115906;28;20119;-85
2023/03/01 07:58:42;;;;;;;6.43;2.90;;;-2.50;99.90;;;;;;5114858;28;20494;-85
2023/03/01 08:01:10;;;;;;;4.60;2.05;;;-1.20;99.90;;;;;;5115404;28;20516;-84
2023/03/01 08:03:37;;;;;;;4.90;2.35;;;-2.80;99.90;;;;;;5116228;28;20104;-86
2023/03/01 08:06:05;;;;;;;4.75;2.55;;;-2.10;99.90;;;;;;5115907;28;20042;-84
2023/03/01 08:08:31;;;;;;;6.60;3.25;;;-2.50;99.90;;;;;;5114386;28;20066;-83
2023/03/01 08:10:59;;;;;;;5.85;3.28;;;-2.40;99.90;;;;;;5114479;28;20051;-84
2023/03/01 08:13:25;;;;;;;7.25;3.40;;;-2.40;99.90;;;;;;5114627;28;20134;-83
2023/03/01 08:15:51;;;;;;;8.35;3.80;;;-1.80;99.90;;;;;;5114794;28;20047;-84
2023/03/01 08:18:18;;;;;;;8.27;4.45;;;-0.60;99.90;;;;;;5114241;28;20093;-82
2023/03/01 08:20:45;;;;;;;8.77;4.70;;;-1.90;99.90;;;;;;5114512;28;20104;-83
2023/03/01 08:23:16;;;;;;;8.65;4.22;;;-1.80;99.90;;;;;;5115233;28;20036;-83
2023/03/01 08:25:42;;;;;;;7.03;4.07;;;-1.30;99.90;;;;;;5097345;28;20043;-84
2023/03/01 08:28:11;;;;;;;7.78;4.10;;;-1.50;99.90;;;;;;5113683;28;20035;-84
2023/03/01 08:30:37;;;;;;;7.45;3.95;;;-2.00;99.90;;;;;;5115216;28;20051;-85
2023/03/01 08:33:03;;;;;;;7.85;4.22;;;-1.30;99.90;;;;;;5114126;28;20376;-84
2023/03/01 08:35:28;;;;;;;8.95;4.43;;;-1.10;99.90;;;;;;5114779;28;20142;-84
2023/03/01 08:37:57;;;;;;;7.13;3.58;;;-1.00;99.90;;;;;;5115305;28;20104;-84
2023/03/01 08:40:25;;;;;;;8.27;3.65;;;-0.80;99.90;;;;;;5113888;28;20043;-84
2023/03/01 08:42:51;;;;;;;8.48;4.40;;;0.10;99.90;;;;;;5114241;28;20042;-83
2023/03/01 08:45:18;;;;;;;7.68;4.07;;;0.40;99.90;;;;;;5114916;28;20469;-84
2023/03/01 08:47:45;;;;;;;9.10;4.28;;;-0.30;99.90;;;;;;5113448;28;20042;-84
2023/03/01 08:50:11;;;;;;;6.85;3.50;;;-0.20;99.90;;;;;;5115049;28;20122;-84
2023/03/01 08:52:37;;;;;;;7.57;4.10;;;-0.40;99.90;;;;;;5114042;28;20039;-84
2023/03/01 08:55:03;;;;;;;7.60;3.25;;;0.10;99.90;;;;;;5113519;28;20055;-85
2023/03/01 08:57:31;;;;;;;5.72;3.50;;;0.30;99.90;;;;;;5096487;28;20044;-85
2023/03/01 09:00:00;;;;;;;6.72;3.70;;;0.60;99.90;;;;;;5113628;28;20048;-85
2023/03/01 09:02:26;;;;;;;7.75;4.00;;;1.30;99.90;;;;;;5096340;28;20044;-85
2023/03/01 09:04:52;;;;;;;8.77;4.53;;;2.30;99.90;;;;;;5113115;28;20042;-85
2023/03/01 09:07:17;;;;;;;10.57;4.75;;;1.40;99.90;;;;;;5114907;28;20036;-86
2023/03/01 09:09:43;;;;;;;6.90;3.85;;;1.20;99.90;;;;;;5114510;28;20051;-85
2023/03/01 09:12:12;;;;;;;9.38;4.43;;;1.40;99.90;;;;;;5130218;27;20055;-85
2023/03/01 09:14:38;;;;;;;7.60;4.20;;;1.50;99.90;;;;;;5096158;28;20059;-85
2023/03/01 09:17:04;;;;;;;9.80;5.03;;;1.60;99.90;;;;;;5114613;28;20048;-85
2023/03/01 09:19:30;;;;;;;9.18;4.22;;;1.80;99.90;;;;;;5113121;28;20130;-85
2023/03/01 09:21:58;;;;;;;8.88;4.10;;;1.90;99.90;;;;;;5114463;28;20063;-86
2023/03/01 09:24:27;;;;;;;14.52;6.70;;;2.80;99.90;;;;;;5113115;28;20432;-85
2023/03/01 09:27:03;;;;;;;11.68;6.57;;;2.20;99.90;;;;;;5112883;28;20043;-86
2023/03/01 09:29:32;;;;;;;10.93;5.85;;;2.40;99.90;;;;;;5114298;28;20051;-86
2023/03/01 09:31:58;;;;;;;12.23;6.57;;;2.50;99.90;;;;;;5113973;28;20123;-86
2023/03/01 09:34:27;;;;;;;11.55;7.13;;;2.70;99.90;;;;;;5113495;28;20156;-86
2023/03/01 09:36:53;;;;;;;14.02;7.25;;;2.80;99.90;;;;;;5112489;28;20051;-86
2023/03/01 09:39:20;;;;;;;12.07;6.63;;;3.10;99.90;;;;;;5112511;28;20035;-86
2023/03/01 09:41:54;;;;;;;13.55;6.50;;;3.10;99.90;;;;;;5112174;28;20079;-87
2023/03/01 09:44:38;;;;;;;12.30;6.93;;;3.30;99.90;;;;;;5112048;28;20044;-86
2023/03/01 09:47:05;;;;;;;11.88;6.53;;;3.20;99.90;;;;;;5113989;28;20047;-86
2023/03/01 09:49:39;;;;;;;14.73;7.88;;;4.10;99.90;;;;;;5112960;28;20557;-86
2023/03/01 09:52:38;;;;;;;14.93;7.68;;;3.80;99.90;;;;;;5113770;28;20042;-86
2023/03/01 09:55:17;;;;;;;15.13;8.07;;;3.90;99.90;;;;;;5112314;28;20058;-86
2023/03/01 09:58:02;;;;;;;16.08;8.80;;;4.00;99.90;;;;;;5113655;28;20055;-87
2023/03/01 10:00:34;;;;;;;18.55;9.07;;;4.10;99.90;;;;;;5111100;28;20143;-87
2023/03/01 10:03:11;;;;;;;18.33;10.15;;;4.00;99.90;;;;;;5112822;28;20073;-86
2023/03/01 10:06:04;;;;;;;17.45;10.32;;;4.40;99.90;;;;;;5113081;28;20055;-87
2023/03/01 10:08:41;;;;;;;18.38;9.50;;;4.60;99.90;;;;;;5113933;28;20169;-86
2023/03/01 10:11:20;;;;;;;20.13;11.13;;;4.70;99.90;;;;;;5113586;28;20556;-86
2023/03/01 10:14:18;;;;;;;17.85;11.05;;;5.00;99.90;;;;;;5112149;28;20082;-87
2023/03/01 10:17:06;;;;;;;18.05;10.02;;;4.60;99.90;;;;;;5112420;28;20079;-87
2023/03/01 10:19:44;;;;;;;15.95;9.60;;;5.00;99.90;;;;;;5112573;28;20035;-86
2023/03/01 10:22:20;;;;;;;15.52;9.10;;;6.00;99.90;;;;;;5112145;28;20055;-87
2023/03/01 10:24:51;;;;;;;15.02;8.52;;;5.30;99.90;;;;;;5095067;28;20138;-87
2023/03/01 10:27:41;;;;;;;18.08;9.75;;;6.30;99.90;;;;;;5113177;28;20040;-86
2023/03/01 10:30:19;;;;;;;18.58;9.93;;;5.30;99.90;;;;;;5112000;28;20044;-86
2023/03/01 10:32:51;;;;;;;18.73;11.30;;;6.70;99.90;;;;;;5111611;28;20401;-87
2023/03/01 10:35:24;;;;;;;17.20;10.40;;;5.80;99.90;;;;;;5111800;28;20117;-87
2023/03/01 10:38:17;;;;;;;15.32;9.90;;;5.90;99.90;;;;;;5112235;28;20089;-87
2023/03/01 10:41:25;;;;;;;17.33;10.10;;;6.00;99.90;;;;;;5112339;28;20039;-86
2023/03/01 10:44:00;;;;;;;17.90;9.35;;;6.20;99.90;;;;;;5036883;28;20051;-86
2023/03/01 10:46:37;;;;;;;13.40;8.95;;;6.20;99.90;;;;;;5070579;28;20052;-87
2023/03/01 10:49:15;;;;;;;13.48;7.90;;;6.20;99.90;;;;;;5070485;28;20083;-87
2023/03/01 10:51:47;;;;;;;14.73;8.65;;;6.90;99.90;;;;;;5052893;28;20473;-87
2023/03/01 10:54:40;;;;;;;15.95;9.80;;;6.40;99.90;;;;;;5069938;28;20053;-87
2023/03/01 10:57:21;;;;;;;14.30;8.45;;;6.50;99.90;;;;;;5072618;28;20048;-87
2023/03/01 11:00:05;;;;;;;12.77;8.05;;;6.40;99.90;;;;;;5056619;28;20049;-87
2023/03/01 11:02:47;;;;;;;14.32;8.52;;;6.50;99.90;;;;;;5074426;28;20374;-87
2023/03/01 11:05:19;;;;;;;15.85;8.95;;;6.70;99.90;;;;;;5071402;28;20056;-88
2023/03/01 11:08:02;;;;;;;14.40;8.45;;;7.80;99.90;;;;;;5014542;28;20053;-87
2023/03/01 11:10:36;;;;;;;14.32;9.32;;;6.80;99.90;;;;;;4997278;28;20056;-87
2023/03/01 11:16:40;;;;;;;14.57;8.35;;;7.40;99.90;;;;;;5114417;27;1768404;-86
2023/03/01 11:19:32;;;;;;;16.33;8.55;;;8.00;99.90;;;;;;5047453;28;20076;-86
2023/03/01 11:22:17;;;;;;;12.07;8.23;;;7.70;99.90;;;;;;5030545;28;20132;-88
2023/03/01 11:24:56;;;;;;;11.95;7.57;;;7.60;99.90;;;;;;4995451;28;20050;-84
2023/03/01 11:27:32;;;;;;;12.50;7.68;;;7.50;99.90;;;;;;5030397;28;20037;-86
2023/03/01 11:30:34;;;;;;;11.68;7.80;;;7.60;99.90;;;;;;5030580;28;20493;-85
2023/03/01 11:33:08;;;;;;;11.73;7.03;;;7.50;99.90;;;;;;5031330;28;20144;-87
2023/03/01 11:35:44;;;;;;;11.23;7.05;;;7.50;99.90;;;;;;5030871;28;20052;-85
2023/03/01 11:38:16;;;;;;;;;;;7.60;99.90;;;;;;5048094;28;20052;-85
2023/03/01 11:41:05;;;;;;;14.98;7.15;;;7.60;99.90;;;;;;5031158;28;19987;-85
2023/03/01 11:43:43;;;;;;;11.90;7.15;;;7.70;99.90;;;;;;5030622;28;20089;-89
2023/03/01 11:46:43;;;;;;;17.45;9.80;;;7.90;99.90;;;;;;5014634;28;20123;-86
2023/03/01 11:49:42;;;;;;;13.13;7.78;;;8.00;99.90;;;;;;5047485;28;20045;-85
2023/03/01 11:52:35;;;;;;;16.25;9.13;;;8.00;99.90;;;;;;5030566;28;20129;-85
2023/03/01 11:55:43;;;;;;;13.07;7.35;;;8.10;99.90;;;;;;5042548;28;20048;-84
2023/03/01 11:58:30;;;;;;;11.95;6.45;;;8.20;99.90;;;;;;5110534;27;20039;-81
2023/03/01 12:01:28;;;;;;;9.70;5.68;;;8.50;99.90;;;;;;5148353;27;20051;-85
2023/03/01 12:04:04;;;;;;;8.32;5.43;;;8.20;99.90;;;;;;5151143;27;20042;-85
2023/03/01 12:06:32;;;;;;;7.18;4.55;;;8.60;99.90;;;;;;5131075;27;20394;-84
2023/03/01 12:09:32;;;;;;;7.30;4.25;;;8.20;99.90;;;;;;5106051;27;20035;-86
2023/03/01 12:12:37;;;;;;;6.13;3.83;;;8.30;99.90;;;;;;5150822;27;20122;-85
2023/03/01 12:15:51;;;;;;;6.10;3.67;;;8.40;99.90;;;;;;5131510;27;20062;-86
2023/03/01 12:18:57;;;;;;;6.28;4.00;;;8.70;99.90;;;;;;5132157;27;20661;-84
2023/03/01 12:22:04;;;;;;;7.50;4.03;;;7.80;99.90;;;;;;5131879;27;20063;-84
2023/03/01 12:24:45;;;;;;;;;;;8.50;99.90;;;;;;5131624;27;20039;-84
2023/03/01 12:27:29;;;;;;;6.15;3.58;;;8.60;99.90;;;;;;5136805;27;19926;-85
2023/03/01 12:30:23;;;;;;;8.68;4.47;;;8.30;99.90;;;;;;5117709;27;20043;-86
2023/03/01 12:33:09;;;;;;;8.80;4.88;;;8.50;99.90;;;;;;5136718;27;20039;-83
2023/03/01 12:35:41;;;;;;;6.63;4.20;;;8.50;99.90;;;;;;5136656;27;20053;-84
2023/03/01 12:38:41;;;;;;;6.80;4.28;;;8.60;99.90;;;;;;5136386;27;20130;-85
2023/03/01 12:41:32;;;;;;;6.65;3.97;;;8.40;99.90;;;;;;4997999;28;20046;-90
2023/03/01 12:44:21;;;;;;;8.63;4.70;;;8.60;99.90;;;;;;5003851;28;20054;-84
2023/03/01 12:47:12;;;;;;;7.28;4.47;;;8.70;99.90;;;;;;5010657;28;20045;-85
2023/03/01 12:49:45;;;;;;;7.68;4.50;;;8.90;99.90;;;;;;5016251;28;20066;-84
2023/03/01 12:52:16;;;;;;;9.38;5.38;;;9.50;99.90;;;;;;5016953;28;20049;-84
2023/03/01 12:54:42;;;;;;;9.93;6.10;;;8.90;99.90;;;;;;5032894;28;20077;-84
2023/03/01 12:57:26;;;;;;;11.40;6.60;;;9.30;99.90;;;;;;5031000;28;20132;-85
2023/03/01 13:00:03;;;;;;;9.55;5.70;;;9.10;99.90;;;;;;5032696;28;20065;-85
2023/03/01 13:07:04;;;;;;;13.20;7.28;;;9.00;99.90;;;;;;5032708;28;20048;-84
2023/03/01 13:09:54;;;;;;;12.63;7.05;;;9.00;99.90;;;;;;4973992;28;20082;-84
2023/03/01 13:12:45;;;;;;;11.35;6.82;;;9.10;99.90;;;;;;4973785;28;20050;-85
2023/03/01 13:15:23;;;;;;;12.50;6.97;;;9.10;99.90;;;;;;4973563;28;20566;-85
2023/03/01 13:18:25;;;;;;;10.63;6.72;;;9.10;99.90;;;;;;4972750;28;20463;-85
2023/03/01 13:20:53;;;;;;;12.90;6.80;;;9.10;99.90;;;;;;4996103;28;20136;-85
2023/03/01 13:23:22;;;;;;;13.18;7.40;;;9.00;99.90;;;;;;4995945;28;20133;-85
2023/03/01 13:26:01;;;;;;;11.63;6.60;;;9.00;99.90;;;;;;4995986;28;20048;-85
2023/03/01 13:28:35;;;;;;;11.50;6.35;;;9.30;99.90;;;;;;4996244;28;20438;-84
2023/03/01 13:31:07;;;;;;;11.68;6.32;;;8.90;99.90;;;;;;4980301;28;20100;-85
2023/03/01 13:33:40;;;;;;;10.68;6.10;;;8.80;99.90;;;;;;4996221;28;20506;-85
2023/03/01 13:36:08;;;;;;;8.80;5.85;;;8.90;99.90;;;;;;4996186;28;20050;-86
2023/03/01 13:38:57;;;;;;;10.80;5.70;;;9.00;99.90;;;;;;4994909;28;20062;-85
2023/03/01 13:41:41;;;;;;;8.85;5.47;;;9.00;99.90;;;;;;4996097;28;20049;-85
2023/03/01 13:44:28;;;;;;;10.88;6.30;;;9.00;99.90;;;;;;5012140;28;20455;-85
2023/03/01 13:47:06;;;;;;;8.07;5.40;;;9.10;99.90;;;;;;5073100;28;20044;-85
2023/03/01 13:49:57;;;;;;;10.40;6.10;;;9.10;99.90;;;;;;5073069;28;20048;-85
2023/03/01 13:52:40;;;;;;;10.38;5.55;;;9.20;99.90;;;;;;5072920;28;20044;-85
2023/03/01 13:55:36;;;;;;;7.93;5.13;;;9.20;99.90;;;;;;5072568;28;20040;-85
2023/03/01 13:58:15;;;;;;;8.30;4.78;;;9.10;99.90;;;;;;5074174;28;20045;-85
2023/03/01 14:00:41;;;;;;;10.02;4.70;;;9.00;99.90;;;;;;5074016;28;20115;-85
2023/03/01 14:03:14;;;;;;;7.55;5.20;;;8.90;99.90;;;;;;5072743;28;20122;-85
2023/03/01 14:05:43;;;;;;;9.35;5.28;;;8.90;99.90;;;;;;5056102;28;20090;-85
2023/03/01 14:08:24;;;;;;;7.35;4.55;;;8.90;99.90;;;;;;5072812;28;20110;-85
2023/03/01 14:10:56;;;;;;;7.97;4.85;;;8.90;99.90;;;;;;5073672;28;20116;-85
2023/03/01 14:14:01;;;;;;;8.65;5.05;;;8.90;99.90;;;;;;5073722;28;20032;-85
2023/03/01 14:17:07;;;;;;;9.60;5.32;;;8.90;99.90;;;;;;5077041;28;20095;-85
2023/03/01 14:19:34;;;;;;;8.90;5.88;;;9.00;99.90;;;;;;5094105;28;20079;-85
2023/03/01 14:22:06;;;;;;;9.88;5.18;;;9.00;99.90;;;;;;5092914;28;20036;-85
2023/03/01 14:24:37;;;;;;;8.57;5.20;;;9.00;99.90;;;;;;5075571;28;20044;-85
2023/03/01 14:27:10;;;;;;;7.95;5.15;;;9.40;99.90;;;;;;5092331;28;20143;-85
2023/03/01 14:29:39;;;;;;;9.50;5.93;;;9.10;99.90;;;;;;5092634;28;20040;-85
2023/03/01 14:32:27;;;;;;;8.02;5.75;;;8.90;99.90;;;;;;5093616;28;20047;-85
2023/03/01 14:34:53;;;;;;;8.88;5.95;;;8.80;99.90;;;;;;5092284;28;20496;-85
2023/03/01 14:37:25;;;;;;;8.82;5.05;;;8.50;99.90;;;;;;5091936;28;20040;-86
2023/03/01 14:39:55;;;;;;;7.82;4.78;;;8.50;99.90;;;;;;5093223;28;20108;-86
2023/03/01 14:42:24;;;;;;;7.40;4.78;;;8.40;99.90;;;;;;5092813;28;20056;-86
2023/03/01 14:44:56;;;;;;;10.05;5.80;;;8.40;99.90;;;;;;5092475;28;20052;-85
2023/03/01 14:47:31;;;;;;;8.63;5.40;;;8.40;99.90;;;;;;5093355;28;20051;-85
2023/03/01 14:50:32;;;;;;;8.85;5.90;;;8.20;99.90;;;;;;5091758;28;20044;-85
2023/03/01 14:53:22;;;;;;;8.82;5.50;;;8.20;99.90;;;;;;5089847;28;20052;-85
2023/03/01 14:56:03;;;;;;;8.57;5.57;;;8.20;99.90;;;;;;5074947;28;20511;-85
2023/03/01 14:58:33;;;;;;;10.68;5.75;;;8.10;99.90;;;;;;5092037;28;20047;-85
2023/03/01 15:01:04;;;;;;;12.93;7.40;;;8.00;99.90;;;;;;5091504;28;20056;-85
2023/03/01 15:03:32;;;;;;;10.20;5.97;;;8.10;99.90;;;;;;5093312;28;20488;-85
2023/03/01 15:06:05;;;;;;;9.52;5.43;;;7.90;99.90;;;;;;5091691;28;20400;-85
2023/03/01 15:08:35;;;;;;;10.80;5.60;;;7.90;99.90;;;;;;5092764;28;20052;-85
2023/03/01 15:11:12;;;;;;;9.55;6.25;;;8.10;99.90;;;;;;5091767;28;20044;-85
2023/03/01 15:13:41;;;;;;;8.07;4.68;;;7.90;99.90;;;;;;5091875;28;20101;-85
2023/03/01 15:16:13;;;;;;;8.63;5.28;;;7.80;99.90;;;;;;5093076;28;20040;-86
2023/03/01 15:18:50;;;;;;;9.57;5.68;;;7.80;99.90;;;;;;5095060;28;20047;-85
2023/03/01 15:21:33;;;;;;;;;;;;;;;;;;;;;
2023/03/01 15:24:11;;;;;;;10.05;5.90;;;7.70;99.90;;;;;;5060486;28;20059;-85
2023/03/01 15:26:44;;;;;;;7.68;5.00;;;7.60;99.90;;;;;;5094974;28;20394;-85
2023/03/01 15:29:18;;;;;;;7.30;5.22;;;7.70;99.90;;;;;;5113136;28;20057;-85
2023/03/01 15:32:03;;;;;;;10.20;5.78;;;7.70;99.90;;;;;;5095029;28;20096;-85
2023/03/01 15:38:54;;;;;;;9.30;6.30;;;7.50;99.90;;;;;;5112864;28;20039;-85
2023/03/01 15:41:27;;;;;;;10.73;6.32;;;7.50;99.90;;;;;;5094767;28;20071;-85
2023/03/01 15:43:56;;;;;;;12.40;7.00;;;8.20;99.90;;;;;;5112869;28;20048;-85
2023/03/01 15:46:29;;;;;;;9.93;6.43;;;7.40;99.90;;;;;;5094647;28;20415;-86
2023/03/01 15:49:04;;;;;;;10.55;6.07;;;7.20;99.90;;;;;;5094440;28;20522;-85
2023/03/01 15:51:37;;;;;;;14.30;7.63;;;7.10;99.90;;;;;;5112813;28;20376;-85
2023/03/01 15:54:17;;;;;;;11.68;7.13;;;7.10;99.90;;;;;;5094542;28;20503;-85
2023/03/01 15:56:50;;;;;;;14.20;6.82;;;7.00;99.90;;;;;;5096625;28;20407;-85
2023/03/01 15:59:22;;;;;;;10.00;6.68;;;7.00;99.90;;;;;;5115120;28;20089;-88
2023/03/01 16:01:51;;;;;;;13.15;7.95;;;6.90;99.90;;;;;;5135550;27;20043;-86
2023/03/01 16:04:20;;;;;;;12.98;7.38;;;6.80;99.90;;;;;;5118505;27;20078;-85
2023/03/01 16:06:54;;;;;;;10.18;6.10;;;6.70;99.90;;;;;;5137135;27;20047;-87
2023/03/01 16:09:26;;;;;;;10.77;6.30;;;6.40;99.90;;;;;;5118609;27;20540;-86
2023/03/01 16:11:59;;;;;;;12.13;6.40;;;6.60;99.90;;;;;;5130547;27;20040;-86